sensor_id;sensor_type;location;lat;lon;timestamp;temperature;humidity
23497;DHT22;11925;48.122;11.560;2023-03-01T00:01:23;7.60;79.00
23497;DHT22;11925;48.122;11.560;2023-03-01T00:03:53;7.60;79.00
23497;DHT22;11925;48.122;11.560;2023-03-01T00:06:22;7.60;79.10
23497;DHT22;11925;48.122;11.560;2023-03-01T00:08:51;7.60;79.00
23497;DHT22;11925;48.122;11.560;2023-03-01T00:11:21;7.60;79.00
23497;DHT22;11925;48.122;11.560;2023-03-01T00:13:52;7.60;79.20
23497;DHT22;11925;48.122;11.560;2023-03-01T00:16:23;7.60;79.20
23497;DHT22;11925;48.122;11.560;2023-03-01T00:18:53;7.60;79.00
23497;DHT22;11925;48.122;11.560;2023-03-01T00:21:22;7.50;79.10
23497;DHT22;11925;48.122;11.560;2023-03-01T00:23:52;7.60;79.00
23497;DHT22;11925;48.122;11.560;2023-03-01T00:26:22;7.60;79.10
23497;DHT22;11925;48.122;11.560;2023-03-01T00:28:51;7.60;79.20
23497;DHT22;11925;48.122;11.560;2023-03-01T00:31:22;7.60;79.20
23497;DHT22;11925;48.122;11.560;2023-03-01T00:33:54;7.60;79.30
23497;DHT22;11925;48.122;11.560;2023-03-01T00:36:25;7.60;79.20
23497;DHT22;11925;48.122;11.560;2023-03-01T00:38:55;7.60;79.10
23497;DHT22;11925;48.122;11.560;2023-03-01T00:41:24;7.60;79.00
23497;DHT22;11925;48.122;11.560;2023-03-01T00:43:54;7.60;78.90
23497;DHT22;11925;48.122;11.560;2023-03-01T00:46:24;7.60;78.80
23497;DHT22;11925;48.122;11.560;2023-03-01T00:48:53;7.60;78.90
23497;DHT22;11925;48.122;11.560;2023-03-01T00:51:23;7.60;78.90
23497;DHT22;11925;48.122;11.560;2023-03-01T00:53:53;7.60;79.00
23497;DHT22;11925;48.122;11.560;2023-03-01T00:56:26;7.60;78.90
23497;DHT22;11925;48.122;11.560;2023-03-01T00:58:55;7.60;78.90
23497;DHT22;11925;48.122;11.560;2023-03-01T01:01:26;7.60;79.20
23497;DHT22;11925;48.122;11.560;2023-03-01T01:03:59;7.50;79.00
23497;DHT22;11925;48.122;11.560;2023-03-01T01:06:29;7.60;79.10
23497;DHT22;11925;48.122;11.560;2023-03-01T01:08:58;7.60;79.30
23497;DHT22;11925;48.122;11.560;2023-03-01T01:11:29;7.50;79.10
23497;DHT22;11925;48.122;11.560;2023-03-01T01:13:58;7.60;79.20
23497;DHT22;11925;48.122;11.560;2023-03-01T01:16:29;7.60;79.30
23497;DHT22;11925;48.122;11.560;2023-03-01T01:18:58;7.60;79.20
23497;DHT22;11925;48.122;11.560;2023-03-01T01:21:27;7.50;79.20
23497;DHT22;11925;48.122;11.560;2023-03-01T01:23:56;7.60;79.30
23497;DHT22;11925;48.122;11.560;2023-03-01T01:26:27;7.60;79.20
23497;DHT22;11925;48.122;11.560;2023-03-01T01:28:56;7.60;79.30
23497;DHT22;11925;48.122;11.560;2023-03-01T01:31:26;7.60;79.30
23497;DHT22;11925;48.122;11.560;2023-03-01T01:33:57;7.60;79.20
23497;DHT22;11925;48.122;11.560;2023-03-01T01:36:26;7.60;79.30
23497;DHT22;11925;48.122;11.560;2023-03-01T01:38:55;7.60;79.30
23497;DHT22;11925;48.122;11.560;2023-03-01T01:41:25;7.60;79.50
23497;DHT22;11925;48.122;11.560;2023-03-01T01:44:17;7.60;79.40
23497;DHT22;11925;48.122;11.560;2023-03-01T01:46:49;7.60;79.30
23497;DHT22;11925;48.122;11.560;2023-03-01T01:49:24;7.60;79.40
23497;DHT22;11925;48.122;11.560;2023-03-01T01:52:00;7.60;79.40
23497;DHT22;11925;48.122;11.560;2023-03-01T01:54:34;7.60;79.30
23497;DHT22;11925;48.122;11.560;2023-03-01T01:57:12;7.60;79.30
23497;DHT22;11925;48.122;11.560;2023-03-01T01:59:47;7.60;79.30
23497;DHT22;11925;48.122;11.560;2023-03-01T02:02:16;7.60;79.40
23497;DHT22;11925;48.122;11.560;2023-03-01T02:04:45;7.50;79.20
23497;DHT22;11925;48.122;11.560;2023-03-01T02:07:17;7.60;79.30
23497;DHT22;11925;48.122;11.560;2023-03-01T02:09:47;7.50;79.20
23497;DHT22;11925;48.122;11.560;2023-03-01T02:12:19;7.60;79.20
23497;DHT22;11925;48.122;11.560;2023-03-01T02:14:49;7.60;79.20
23497;DHT22;11925;48.122;11.560;2023-03-01T02:17:18;7.50;79.10
23497;DHT22;11925;48.122;11.560;2023-03-01T02:19:59;7.50;79.20
23497;DHT22;11925;48.122;11.560;2023-03-01T02:22:31;7.50;79.10
23497;DHT22;11925;48.122;11.560;2023-03-01T02:25:08;7.50;79.00
23497;DHT22;11925;48.122;11.560;2023-03-01T02:27:51;7.50;79.10
23497;DHT22;11925;48.122;11.560;2023-03-01T02:30:25;7.50;79.10
23497;DHT22;11925;48.122;11.560;2023-03-01T02:32:56;7.60;79.00
23497;DHT22;11925;48.122;11.560;2023-03-01T02:35:32;7.60;78.90
23497;DHT22;11925;48.122;11.560;2023-03-01T02:38:02;7.50;79.00
23497;DHT22;11925;48.122;11.560;2023-03-01T02:40:33;7.60;78.80
23497;DHT22;11925;48.122;11.560;2023-03-01T02:43:03;7.50;78.80
23497;DHT22;11925;48.122;11.560;2023-03-01T02:45:34;7.60;78.80
23497;DHT22;11925;48.122;11.560;2023-03-01T02:48:03;7.50;78.90
23497;DHT22;11925;48.122;11.560;2023-03-01T02:50:46;7.50;79.00
23497;DHT22;11925;48.122;11.560;2023-03-01T02:53:23;7.50;79.00
23497;DHT22;11925;48.122;11.560;2023-03-01T02:55:55;7.60;79.10
23497;DHT22;11925;48.122;11.560;2023-03-01T02:58:24;7.50;79.00
23497;DHT22;11925;48.122;11.560;2023-03-01T03:00:54;7.60;79.20
23497;DHT22;11925;48.122;11.560;2023-03-01T03:03:23;7.50;79.20
23497;DHT22;11925;48.122;11.560;2023-03-01T03:05:51;7.50;79.20
23497;DHT22;11925;48.122;11.560;2023-03-01T03:08:19;7.60;79.20
23497;DHT22;11925;48.122;11.560;2023-03-01T03:10:52;7.50;79.10
23497;DHT22;11925;48.122;11.560;2023-03-01T03:13:21;7.60;79.20
23497;DHT22;11925;48.122;11.560;2023-03-01T03:15:56;7.50;79.20
23497;DHT22;11925;48.122;11.560;2023-03-01T03:18:25;7.50;79.20
23497;DHT22;11925;48.122;11.560;2023-03-01T03:20:54;7.50;79.20
23497;DHT22;11925;48.122;11.560;2023-03-01T03:23:22;7.50;79.30
23497;DHT22;11925;48.122;11.560;2023-03-01T03:25:51;7.60;79.30
23497;DHT22;11925;48.122;11.560;2023-03-01T03:28:19;7.60;79.00
23497;DHT22;11925;48.122;11.560;2023-03-01T03:30:47;7.50;78.80
23497;DHT22;11925;48.122;11.560;2023-03-01T03:33:18;7.50;78.80
23497;DHT22;11925;48.122;11.560;2023-03-01T03:35:48;7.50;78.70
23497;DHT22;11925;48.122;11.560;2023-03-01T03:38:25;7.50;79.60
23497;DHT22;11925;48.122;11.560;2023-03-01T03:41:00;7.50;78.80
23497;DHT22;11925;48.122;11.560;2023-03-01T03:43:30;7.50;78.80
23497;DHT22;11925;48.122;11.560;2023-03-01T03:45:59;7.50;78.50
23497;DHT22;11925;48.122;11.560;2023-03-01T03:48:33;7.50;78.40
23497;DHT22;11925;48.122;11.560;2023-03-01T03:51:02;7.60;78.40
23497;DHT22;11925;48.122;11.560;2023-03-01T03:53:33;7.50;78.20
23497;DHT22;11925;48.122;11.560;2023-03-01T03:56:01;7.50;78.20
23497;DHT22;11925;48.122;11.560;2023-03-01T03:58:32;7.50;77.90
23497;DHT22;11925;48.122;11.560;2023-03-01T04:01:01;7.50;77.90
23497;DHT22;11925;48.122;11.560;2023-03-01T04:03:30;7.50;78.10
23497;DHT22;11925;48.122;11.560;2023-03-01T04:06:00;7.50;78.10
23497;DHT22;11925;48.122;11.560;2023-03-01T04:08:29;7.50;78.10
23497;DHT22;11925;48.122;11.560;2023-03-01T04:11:00;7.50;78.20
23497;DHT22;11925;48.122;11.560;2023-03-01T04:13:51;7.50;78.10
23497;DHT22;11925;48.122;11.560;2023-03-01T04:16:20;7.50;78.20
23497;DHT22;11925;48.122;11.560;2023-03-01T04:18:49;7.40;78.20
23497;DHT22;11925;48.122;11.560;2023-03-01T04:21:17;7.50;78.30
23497;DHT22;11925;48.122;11.560;2023-03-01T04:23:47;7.50;78.30
23497;DHT22;11925;48.122;11.560;2023-03-01T04:26:20;7.50;78.20
23497;DHT22;11925;48.122;11.560;2023-03-01T04:28:49;7.50;78.20
23497;DHT22;11925;48.122;11.560;2023-03-01T04:31:19;7.40;78.30
23497;DHT22;11925;48.122;11.560;2023-03-01T04:33:51;7.40;78.30
23497;DHT22;11925;48.122;11.560;2023-03-01T04:36:21;7.50;78.20
23497;DHT22;11925;48.122;11.560;2023-03-01T04:38:50;7.50;78.40
23497;DHT22;11925;48.122;11.560;2023-03-01T04:41:23;7.50;78.10
23497;DHT22;11925;48.122;11.560;2023-03-01T04:43:52;7.50;77.90
23497;DHT22;11925;48.122;11.560;2023-03-01T04:46:21;7.50;77.90
23497;DHT22;11925;48.122;11.560;2023-03-01T04:48:55;7.40;77.80
23497;DHT22;11925;48.122;11.560;2023-03-01T04:51:24;7.40;77.90
23497;DHT22;11925;48.122;11.560;2023-03-01T04:53:52;7.40;77.90
23497;DHT22;11925;48.122;11.560;2023-03-01T04:56:21;7.40;77.80
23497;DHT22;11925;48.122;11.560;2023-03-01T04:58:53;7.40;77.90
23497;DHT22;11925;48.122;11.560;2023-03-01T05:01:21;7.40;77.90
23497;DHT22;11925;48.122;11.560;2023-03-01T05:03:50;7.40;78.00
23497;DHT22;11925;48.122;11.560;2023-03-01T05:06:20;7.50;77.90
23497;DHT22;11925;48.122;11.560;2023-03-01T05:08:48;7.50;77.70
23497;DHT22;11925;48.122;11.560;2023-03-01T05:11:17;7.50;77.70
23497;DHT22;11925;48.122;11.560;2023-03-01T05:13:47;7.50;77.10
23497;DHT22;11925;48.122;11.560;2023-03-01T05:16:16;7.50;77.10
23497;DHT22;11925;48.122;11.560;2023-03-01T05:18:46;7.40;77.40
23497;DHT22;11925;48.122;11.560;2023-03-01T05:21:17;7.40;77.10
23497;DHT22;11925;48.122;11.560;2023-03-01T05:23:45;7.40;77.20
23497;DHT22;11925;48.122;11.560;2023-03-01T05:26:15;7.40;77.10
23497;DHT22;11925;48.122;11.560;2023-03-01T05:29:01;7.30;78.10
23497;DHT22;11925;48.122;11.560;2023-03-01T05:31:29;7.40;77.40
23497;DHT22;11925;48.122;11.560;2023-03-01T05:33:58;7.30;77.40
23497;DHT22;11925;48.122;11.560;2023-03-01T05:36:26;7.40;77.50
23497;DHT22;11925;48.122;11.560;2023-03-01T05:38:55;7.40;77.40
23497;DHT22;11925;48.122;11.560;2023-03-01T05:41:23;7.40;77.20
23497;DHT22;11925;48.122;11.560;2023-03-01T05:43:51;7.40;77.00
23497;DHT22;11925;48.122;11.560;2023-03-01T05:46:21;7.40;77.20
23497;DHT22;11925;48.122;11.560;2023-03-01T05:48:51;7.30;77.00
23497;DHT22;11925;48.122;11.560;2023-03-01T05:51:19;7.40;77.10
23497;DHT22;11925;48.122;11.560;2023-03-01T05:53:49;7.40;77.30
23497;DHT22;11925;48.122;11.560;2023-03-01T05:56:17;7.30;77.30
23497;DHT22;11925;48.122;11.560;2023-03-01T05:58:45;7.30;77.50
23497;DHT22;11925;48.122;11.560;2023-03-01T06:01:15;7.30;77.50
23497;DHT22;11925;48.122;11.560;2023-03-01T06:03:45;7.30;77.50
23497;DHT22;11925;48.122;11.560;2023-03-01T06:06:13;7.30;77.50
23497;DHT22;11925;48.122;11.560;2023-03-01T06:08:42;7.40;77.60
23497;DHT22;11925;48.122;11.560;2023-03-01T06:11:10;7.30;77.50
23497;DHT22;11925;48.122;11.560;2023-03-01T06:13:38;7.30;77.70
23497;DHT22;11925;48.122;11.560;2023-03-01T06:16:07;7.40;77.60
23497;DHT22;11925;48.122;11.560;2023-03-01T06:18:36;7.40;77.70
23497;DHT22;11925;48.122;11.560;2023-03-01T06:21:07;7.40;77.70
23497;DHT22;11925;48.122;11.560;2023-03-01T06:23:35;7.30;77.50
23497;DHT22;11925;48.122;11.560;2023-03-01T06:26:06;7.40;77.60
23497;DHT22;11925;48.122;11.560;2023-03-01T06:28:35;7.30;77.40
23497;DHT22;11925;48.122;11.560;2023-03-01T06:31:04;7.40;77.40
23497;DHT22;11925;48.122;11.560;2023-03-01T06:33:35;7.30;77.40
23497;DHT22;11925;48.122;11.560;2023-03-01T06:36:06;7.40;77.40
23497;DHT22;11925;48.122;11.560;2023-03-01T06:38:34;7.30;77.40
23497;DHT22;11925;48.122;11.560;2023-03-01T06:41:03;7.30;77.40
23497;DHT22;11925;48.122;11.560;2023-03-01T06:43:31;7.40;77.40
23497;DHT22;11925;48.122;11.560;2023-03-01T06:45:59;7.40;77.40
23497;DHT22;11925;48.122;11.560;2023-03-01T06:48:28;7.40;77.40
23497;DHT22;11925;48.122;11.560;2023-03-01T06:50:58;7.40;77.40
23497;DHT22;11925;48.122;11.560;2023-03-01T06:53:28;7.30;77.40
23497;DHT22;11925;48.122;11.560;2023-03-01T06:55:57;7.40;77.30
23497;DHT22;11925;48.122;11.560;2023-03-01T06:58:27;7.30;77.20
23497;DHT22;11925;48.122;11.560;2023-03-01T07:00:55;7.40;77.20
23497;DHT22;11925;48.122;11.560;2023-03-01T07:03:23;7.40;77.20
23497;DHT22;11925;48.122;11.560;2023-03-01T07:05:52;7.40;77.20
23497;DHT22;11925;48.122;11.560;2023-03-01T07:08:20;7.40;77.20
23497;DHT22;11925;48.122;11.560;2023-03-01T07:10:54;7.40;77.20
23497;DHT22;11925;48.122;11.560;2023-03-01T07:13:23;7.30;77.20
23497;DHT22;11925;48.122;11.560;2023-03-01T07:15:51;7.40;77.10
23497;DHT22;11925;48.122;11.560;2023-03-01T07:18:20;7.40;77.80
23497;DHT22;11925;48.122;11.560;2023-03-01T07:20:48;7.40;76.90
23497;DHT22;11925;48.122;11.560;2023-03-01T07:23:16;7.30;76.90
23497;DHT22;11925;48.122;11.560;2023-03-01T07:25:52;7.30;76.90
23497;DHT22;11925;48.122;11.560;2023-03-01T07:28:22;7.30;76.90
23497;DHT22;11925;48.122;11.560;2023-03-01T07:30:51;7.30;76.90
23497;DHT22;11925;48.122;11.560;2023-03-01T07:33:19;7.30;76.90
23497;DHT22;11925;48.122;11.560;2023-03-01T07:35:48;7.30;77.70
23497;DHT22;11925;48.122;11.560;2023-03-01T07:38:16;7.30;77.70
23497;DHT22;11925;48.122;11.560;2023-03-01T07:40:44;7.30;76.90
23497;DHT22;11925;48.122;11.560;2023-03-01T07:43:14;7.30;76.90
23497;DHT22;11925;48.122;11.560;2023-03-01T07:45:43;7.30;76.80
23497;DHT22;11925;48.122;11.560;2023-03-01T07:48:11;7.30;76.80
23497;DHT22;11925;48.122;11.560;2023-03-01T07:50:39;7.30;76.70
23497;DHT22;11925;48.122;11.560;2023-03-01T07:53:08;7.30;76.80
23497;DHT22;11925;48.122;11.560;2023-03-01T07:55:36;7.30;76.90
23497;DHT22;11925;48.122;11.560;2023-03-01T07:58:04;7.30;76.90
23497;DHT22;11925;48.122;11.560;2023-03-01T08:00:34;7.30;76.80
23497;DHT22;11925;48.122;11.560;2023-03-01T08:03:03;7.30;76.80
23497;DHT22;11925;48.122;11.560;2023-03-01T08:05:34;7.30;77.10
23497;DHT22;11925;48.122;11.560;2023-03-01T08:08:02;7.30;77.20
23497;DHT22;11925;48.122;11.560;2023-03-01T08:10:32;7.30;78.00
23497;DHT22;11925;48.122;11.560;2023-03-01T08:13:00;7.30;77.20
23497;DHT22;11925;48.122;11.560;2023-03-01T08:15:28;7.40;77.30
23497;DHT22;11925;48.122;11.560;2023-03-01T08:17:58;7.40;77.10
23497;DHT22;11925;48.122;11.560;2023-03-01T08:20:26;7.40;77.00
23497;DHT22;11925;48.122;11.560;2023-03-01T08:22:54;7.30;77.00
23497;DHT22;11925;48.122;11.560;2023-03-01T08:25:22;7.30;77.00
23497;DHT22;11925;48.122;11.560;2023-03-01T08:27:51;7.40;77.20
23497;DHT22;11925;48.122;11.560;2023-03-01T08:30:19;7.30;77.20
23497;DHT22;11925;48.122;11.560;2023-03-01T08:32:47;7.30;77.20
23497;DHT22;11925;48.122;11.560;2023-03-01T08:35:17;7.30;77.10
23497;DHT22;11925;48.122;11.560;2023-03-01T08:37:46;7.30;77.10
23497;DHT22;11925;48.122;11.560;2023-03-01T08:40:15;7.30;77.20
23497;DHT22;11925;48.122;11.560;2023-03-01T08:42:43;7.40;77.40
23497;DHT22;11925;48.122;11.560;2023-03-01T08:45:12;7.40;77.20
23497;DHT22;11925;48.122;11.560;2023-03-01T08:47:41;7.40;77.80
23497;DHT22;11925;48.122;11.560;2023-03-01T08:50:09;7.60;77.10
23497;DHT22;11925;48.122;11.560;2023-03-01T08:52:39;7.30;76.90
23497;DHT22;11925;48.122;11.560;2023-03-01T08:55:08;7.40;77.10
23497;DHT22;11925;48.122;11.560;2023-03-01T08:57:36;7.30;76.90
23497;DHT22;11925;48.122;11.560;2023-03-01T09:00:06;7.30;76.90
23497;DHT22;11925;48.122;11.560;2023-03-01T09:02:36;7.30;77.00
23497;DHT22;11925;48.122;11.560;2023-03-01T09:05:05;7.30;76.90
23497;DHT22;11925;48.122;11.560;2023-03-01T09:07:33;7.40;77.00
23497;DHT22;11925;48.122;11.560;2023-03-01T09:10:03;7.40;77.10
23497;DHT22;11925;48.122;11.560;2023-03-01T09:12:32;7.40;77.20
23497;DHT22;11925;48.122;11.560;2023-03-01T09:15:00;7.40;77.20
23497;DHT22;11925;48.122;11.560;2023-03-01T09:17:28;7.40;77.20
23497;DHT22;11925;48.122;11.560;2023-03-01T09:19:56;7.40;77.00
23497;DHT22;11925;48.122;11.560;2023-03-01T09:22:26;7.40;77.00
23497;DHT22;11925;48.122;11.560;2023-03-01T09:24:54;7.40;77.10
23497;DHT22;11925;48.122;11.560;2023-03-01T09:27:27;7.40;77.00
23497;DHT22;11925;48.122;11.560;2023-03-01T09:29:55;7.30;76.90
23497;DHT22;11925;48.122;11.560;2023-03-01T09:32:24;7.30;77.00
23497;DHT22;11925;48.122;11.560;2023-03-01T09:34:52;7.30;77.10
23497;DHT22;11925;48.122;11.560;2023-03-01T09:37:32;7.40;77.10
23497;DHT22;11925;48.122;11.560;2023-03-01T09:40:01;7.40;77.30
23497;DHT22;11925;48.122;11.560;2023-03-01T09:42:32;7.40;77.30
23497;DHT22;11925;48.122;11.560;2023-03-01T09:45:05;7.40;77.40
23497;DHT22;11925;48.122;11.560;2023-03-01T09:47:35;7.40;77.90
23497;DHT22;11925;48.122;11.560;2023-03-01T09:50:12;7.40;77.00
23497;DHT22;11925;48.122;11.560;2023-03-01T09:52:43;7.40;77.00
23497;DHT22;11925;48.122;11.560;2023-03-01T09:55:16;7.40;77.00
23497;DHT22;11925;48.122;11.560;2023-03-01T09:57:49;7.40;77.20
23497;DHT22;11925;48.122;11.560;2023-03-01T10:00:31;7.40;77.20
23497;DHT22;11925;48.122;11.560;2023-03-01T10:03:11;7.40;77.10
23497;DHT22;11925;48.122;11.560;2023-03-01T10:05:52;7.30;77.20
23497;DHT22;11925;48.122;11.560;2023-03-01T10:08:28;7.40;77.20
23497;DHT22;11925;48.122;11.560;2023-03-01T10:11:00;7.40;77.40
23497;DHT22;11925;48.122;11.560;2023-03-01T10:13:36;7.40;77.40
23497;DHT22;11925;48.122;11.560;2023-03-01T10:16:10;7.40;77.50
23497;DHT22;11925;48.122;11.560;2023-03-01T10:18:40;7.40;77.60
23497;DHT22;11925;48.122;11.560;2023-03-01T10:21:14;7.40;77.60
23497;DHT22;11925;48.122;11.560;2023-03-01T10:23:44;7.40;77.60
23497;DHT22;11925;48.122;11.560;2023-03-01T10:26:25;7.40;77.80
23497;DHT22;11925;48.122;11.560;2023-03-01T10:29:01;7.40;77.60
23497;DHT22;11925;48.122;11.560;2023-03-01T10:31:38;7.40;77.70
23497;DHT22;11925;48.122;11.560;2023-03-01T10:34:10;7.40;77.70
23497;DHT22;11925;48.122;11.560;2023-03-01T10:36:40;7.40;77.80
23497;DHT22;11925;48.122;11.560;2023-03-01T10:39:15;7.40;77.90
23497;DHT22;11925;48.122;11.560;2023-03-01T10:42:00;7.40;77.80
23497;DHT22;11925;48.122;11.560;2023-03-01T10:44:42;7.40;77.80
23497;DHT22;11925;48.122;11.560;2023-03-01T10:47:17;7.40;77.70
23497;DHT22;11925;48.122;11.560;2023-03-01T10:49:58;7.40;77.60
23497;DHT22;11925;48.122;11.560;2023-03-01T10:52:32;7.40;77.50
23497;DHT22;11925;48.122;11.560;2023-03-01T10:55:03;7.40;77.10
23497;DHT22;11925;48.122;11.560;2023-03-01T10:57:36;7.40;76.90
23497;DHT22;11925;48.122;11.560;2023-03-01T11:00:22;7.40;77.00
23497;DHT22;11925;48.122;11.560;2023-03-01T11:03:03;7.40;77.20
23497;DHT22;11925;48.122;11.560;2023-03-01T11:05:31;7.40;77.00
23497;DHT22;11925;48.122;11.560;2023-03-01T11:08:02;7.40;77.00
23497;DHT22;11925;48.122;11.560;2023-03-01T11:10:32;7.40;77.00
23497;DHT22;11925;48.122;11.560;2023-03-01T11:13:08;7.40;77.00
23497;DHT22;11925;48.122;11.560;2023-03-01T11:15:43;7.40;77.00
23497;DHT22;11925;48.122;11.560;2023-03-01T11:18:26;7.40;77.10
23497;DHT22;11925;48.122;11.560;2023-03-01T11:21:13;7.40;77.30
23497;DHT22;11925;48.122;11.560;2023-03-01T11:23:44;7.40;77.30
23497;DHT22;11925;48.122;11.560;2023-03-01T11:26:13;7.40;77.20
23497;DHT22;11925;48.122;11.560;2023-03-01T11:28:48;7.40;77.20
23497;DHT22;11925;48.122;11.560;2023-03-01T11:31:20;7.40;77.20
23497;DHT22;11925;48.122;11.560;2023-03-01T11:33:50;7.40;77.20
23497;DHT22;11925;48.122;11.560;2023-03-01T11:36:26;7.40;77.20
23497;DHT22;11925;48.122;11.560;2023-03-01T11:38:57;7.40;77.00
23497;DHT22;11925;48.122;11.560;2023-03-01T11:41:31;7.40;77.20
23497;DHT22;11925;48.122;11.560;2023-03-01T11:44:02;7.40;77.20
23497;DHT22;11925;48.122;11.560;2023-03-01T11:47:05;7.40;77.30
23497;DHT22;11925;48.122;11.560;2023-03-01T11:49:53;7.40;77.20
23497;DHT22;11925;48.122;11.560;2023-03-01T11:52:31;7.40;77.30
23497;DHT22;11925;48.122;11.560;2023-03-01T11:55:23;7.40;77.30
23497;DHT22;11925;48.122;11.560;2023-03-01T11:58:04;7.40;77.30
23497;DHT22;11925;48.122;11.560;2023-03-01T12:00:44;7.40;77.30
23497;DHT22;11925;48.122;11.560;2023-03-01T12:03:28;7.40;77.50
23497;DHT22;11925;48.122;11.560;2023-03-01T12:06:22;7.50;77.50
23497;DHT22;11925;48.122;11.560;2023-03-01T12:09:03;7.40;77.60
23497;DHT22;11925;48.122;11.560;2023-03-01T12:11:43;7.40;77.50
23497;DHT22;11925;48.122;11.560;2023-03-01T12:14:31;7.40;77.50
23497;DHT22;11925;48.122;11.560;2023-03-01T12:17:20;7.50;77.50
23497;DHT22;11925;48.122;11.560;2023-03-01T12:20:11;7.50;77.50
23497;DHT22;11925;48.122;11.560;2023-03-01T12:22:57;7.50;77.70
23497;DHT22;11925;48.122;11.560;2023-03-01T12:25:47;7.50;77.80
23497;DHT22;11925;48.122;11.560;2023-03-01T12:31:44;7.50;77.80
23497;DHT22;11925;48.122;11.560;2023-03-01T12:34:34;7.50;77.80
23497;DHT22;11925;48.122;11.560;2023-03-01T12:37:20;7.40;77.60
23497;DHT22;11925;48.122;11.560;2023-03-01T12:40:02;7.50;77.80
23497;DHT22;11925;48.122;11.560;2023-03-01T12:42:32;7.50;77.80
23497;DHT22;11925;48.122;11.560;2023-03-01T12:45:26;7.50;77.70
23497;DHT22;11925;48.122;11.560;2023-03-01T12:48:13;7.50;77.80
23497;DHT22;11925;48.122;11.560;2023-03-01T12:50:46;7.50;77.80
23497;DHT22;11925;48.122;11.560;2023-03-01T12:53:22;7.50;78.10
23497;DHT22;11925;48.122;11.560;2023-03-01T12:55:53;7.50;79.00
23497;DHT22;11925;48.122;11.560;2023-03-01T12:58:28;7.50;78.10
23497;DHT22;11925;48.122;11.560;2023-03-01T13:01:21;7.50;77.90
23497;DHT22;11925;48.122;11.560;2023-03-01T13:04:14;7.50;77.90
23497;DHT22;11925;48.122;11.560;2023-03-01T13:06:52;7.50;78.30
23497;DHT22;11925;48.122;11.560;2023-03-01T13:09:29;7.50;78.20
23497;DHT22;11925;48.122;11.560;2023-03-01T13:11:58;7.50;78.30
23497;DHT22;11925;48.122;11.560;2023-03-01T13:14:45;7.50;78.20
23497;DHT22;11925;48.122;11.560;2023-03-01T13:17:32;7.50;78.30
23497;DHT22;11925;48.122;11.560;2023-03-01T13:20:01;7.50;78.30
23497;DHT22;11925;48.122;11.560;2023-03-01T13:22:33;7.50;78.40
23497;DHT22;11925;48.122;11.560;2023-03-01T13:25:17;7.40;78.30
23497;DHT22;11925;48.122;11.560;2023-03-01T13:27:46;7.50;78.40
23497;DHT22;11925;48.122;11.560;2023-03-01T13:30:40;7.40;78.40
23497;DHT22;11925;48.122;11.560;2023-03-01T13:33:43;7.50;78.40
23497;DHT22;11925;48.122;11.560;2023-03-01T13:36:48;7.50;78.40
23497;DHT22;11925;48.122;11.560;2023-03-01T13:39:28;7.50;78.40
23497;DHT22;11925;48.122;11.560;2023-03-01T13:42:00;7.50;78.40
23497;DHT22;11925;48.122;11.560;2023-03-01T13:44:32;7.50;78.50
23497;DHT22;11925;48.122;11.560;2023-03-01T13:47:14;7.50;78.50
23497;DHT22;11925;48.122;11.560;2023-03-01T13:49:47;7.50;78.70
23497;DHT22;11925;48.122;11.560;2023-03-01T13:52:38;7.50;78.70
23497;DHT22;11925;48.122;11.560;2023-03-01T13:55:17;7.50;78.80
23497;DHT22;11925;48.122;11.560;2023-03-01T13:57:50;7.50;78.90
23497;DHT22;11925;48.122;11.560;2023-03-01T14:00:35;7.50;79.00
23497;DHT22;11925;48.122;11.560;2023-03-01T14:03:08;7.50;79.00
23497;DHT22;11925;48.122;11.560;2023-03-01T14:05:38;7.60;79.00
23497;DHT22;11925;48.122;11.560;2023-03-01T14:08:23;7.50;79.00
23497;DHT22;11925;48.122;11.560;2023-03-01T14:13:58;7.60;79.90
23497;DHT22;11925;48.122;11.560;2023-03-01T14:16:37;7.60;79.00
23497;DHT22;11925;48.122;11.560;2023-03-01T14:19:16;7.50;79.00
23497;DHT22;11925;48.122;11.560;2023-03-01T14:22:12;7.60;79.20
23497;DHT22;11925;48.122;11.560;2023-03-01T14:24:46;7.60;79.30
23497;DHT22;11925;48.122;11.560;2023-03-01T14:27:16;7.60;79.20
23497;DHT22;11925;48.122;11.560;2023-03-01T14:29:57;7.60;79.30
23497;DHT22;11925;48.122;11.560;2023-03-01T14:32:27;7.60;79.50
23497;DHT22;11925;48.122;11.560;2023-03-01T14:34:57;7.60;79.50
23497;DHT22;11925;48.122;11.560;2023-03-01T14:37:28;7.60;80.30
23497;DHT22;11925;48.122;11.560;2023-03-01T14:39:58;7.60;79.30
23497;DHT22;11925;48.122;11.560;2023-03-01T14:42:33;7.60;79.30
23497;DHT22;11925;48.122;11.560;2023-03-01T14:45:05;7.60;79.30
23497;DHT22;11925;48.122;11.560;2023-03-01T14:47:35;7.60;79.30
23497;DHT22;11925;48.122;11.560;2023-03-01T14:50:08;7.60;79.30
23497;DHT22;11925;48.122;11.560;2023-03-01T14:52:38;7.60;79.20
23497;DHT22;11925;48.122;11.560;2023-03-01T14:55:15;7.60;79.20
23497;DHT22;11925;48.122;11.560;2023-03-01T14:57:47;7.70;79.20
23497;DHT22;11925;48.122;11.560;2023-03-01T15:00:19;7.60;79.20
23497;DHT22;11925;48.122;11.560;2023-03-01T15:02:49;7.60;79.30
23497;DHT22;11925;48.122;11.560;2023-03-01T15:05:24;7.60;79.30
23497;DHT22;11925;48.122;11.560;2023-03-01T15:07:54;7.70;80.20
23497;DHT22;11925;48.122;11.560;2023-03-01T15:10:25;7.70;79.60
23497;DHT22;11925;48.122;11.560;2023-03-01T15:12:54;7.70;79.70
23497;DHT22;11925;48.122;11.560;2023-03-01T15:15:33;7.70;79.60
23497;DHT22;11925;48.122;11.560;2023-03-01T15:18:04;7.70;79.70
23497;DHT22;11925;48.122;11.560;2023-03-01T15:20:33;7.70;79.90
23497;DHT22;11925;48.122;11.560;2023-03-01T15:23:04;7.70;79.90
23497;DHT22;11925;48.122;11.560;2023-03-01T15:25:33;7.80;80.00
23497;DHT22;11925;48.122;11.560;2023-03-01T15:28:03;7.70;79.90
23497;DHT22;11925;48.122;11.560;2023-03-01T15:30:35;7.70;79.80
23497;DHT22;11925;48.122;11.560;2023-03-01T15:33:20;7.70;80.00
23497;DHT22;11925;48.122;11.560;2023-03-01T15:35:50;7.70;80.10
23497;DHT22;11925;48.122;11.560;2023-03-01T15:38:33;7.70;80.10
23497;DHT22;11925;48.122;11.560;2023-03-01T15:41:03;7.80;80.20
23497;DHT22;11925;48.122;11.560;2023-03-01T15:43:40;7.70;80.20
23497;DHT22;11925;48.122;11.560;2023-03-01T15:46:28;7.80;80.40
23497;DHT22;11925;48.122;11.560;2023-03-01T15:49:01;7.80;80.20
23497;DHT22;11925;48.122;11.560;2023-03-01T15:51:33;7.80;80.40
23497;DHT22;11925;48.122;11.560;2023-03-01T15:54:04;7.80;80.50
23497;DHT22;11925;48.122;11.560;2023-03-01T15:56:33;7.80;80.40
23497;DHT22;11925;48.122;11.560;2023-03-01T15:59:02;7.80;80.50
23497;DHT22;11925;48.122;11.560;2023-03-01T16:01:32;7.80;80.60
23497;DHT22;11925;48.122;11.560;2023-03-01T16:04:02;7.80;80.60
23497;DHT22;11925;48.122;11.560;2023-03-01T16:06:30;7.80;80.80
23497;DHT22;11925;48.122;11.560;2023-03-01T16:08:59;7.80;80.80
23497;DHT22;11925;48.122;11.560;2023-03-01T16:11:27;7.80;81.00